Time;durP1;ratioP1;P1;durP2;ratioP2;P2;SDS_P1;SDS_P2;PMS_P1;PMS_P2;Temp;Humidity;BMP_temperature;BMP_pressure;BME280_temperature;BME280_humidity;BME280_pressure;Samples;Min_cycle;Max_cycle;Signal;HPM_P1;HPM_P2
2022/02/18 00:01:50;;;;;;;10.30;3.10;;;;;;;4.23;70.25;97331.82;433019;1269;108854;-41
2022/02/18 00:11:57;;;;;;;7.40;2.10;;;;;;;4.26;70.07;97338.40;434353;1263;108889;-42
2022/02/18 00:22:04;;;;;;;5.10;1.70;;;;;;;4.16;69.58;97348.73;434125;1264;97904;-44
2022/02/18 00:32:10;;;;;;;10.30;4.00;;;;;;;4.13;68.98;97367.61;434286;1264;111056;-42
2022/02/18 00:42:16;;;;;;;6.50;3.60;;;;;;;4.17;68.38;97378.80;434208;1264;108808;-42
2022/02/18 00:52:23;;;;;;;7.10;1.60;;;;;;;4.26;67.57;97388.79;434124;1264;108793;-41
2022/02/18 01:02:31;;;;;;;8.50;2.10;;;;;;;4.33;67.61;97418.88;434268;1264;97973;-40
2022/02/18 01:12:39;;;;;;;11.40;2.30;;;;;;;4.37;67.18;97436.63;434169;1264;110992;-40
2022/02/18 01:22:46;;;;;;;6.90;2.00;;;;;;;4.27;67.17;97443.92;434205;1264;107848;-40
2022/02/18 01:32:54;;;;;;;5.00;1.30;;;;;;;4.05;67.33;97446.58;434257;1263;96802;-40
2022/02/18 01:43:01;;;;;;;6.20;2.30;;;;;;;3.87;67.57;97473.10;434248;1264;97999;-41
2022/02/18 01:53:12;;;;;;;11.20;1.50;;;;;;;3.79;67.97;97488.67;434141;1264;108606;-40
2022/02/18 02:03:20;;;;;;;5.60;2.10;;;;;;;3.67;67.83;97504.56;434203;1264;108871;-40
2022/02/18 02:13:29;;;;;;;4.40;2.00;;;;;;;3.63;67.81;97514.29;435075;1254;97533;-42
2022/02/18 02:23:36;;;;;;;6.00;1.40;;;;;;;3.63;68.04;97515.65;434717;1264;97922;-40
2022/02/18 02:33:44;;;;;;;6.70;1.50;;;;;;;3.62;67.69;97513.46;434444;1264;110129;-41
2022/02/18 02:43:51;;;;;;;4.10;1.80;;;;;;;3.48;68.00;97521.67;434656;1264;108884;-41
2022/02/18 02:53:59;;;;;;;8.60;1.90;;;;;;;3.28;68.41;97535.17;434083;1264;97912;-42
2022/02/18 03:04:04;;;;;;;5.00;1.70;;;;;;;3.15;68.44;97551.81;434590;1262;111181;-41
2022/02/18 03:14:12;;;;;;;4.80;1.20;;;;;;;3.19;68.78;97574.09;434497;1263;98218;-41
2022/02/18 03:34:25;;;;;;;13.60;2.50;;;;;;;3.42;68.95;97597.81;434475;1263;111016;-43
2022/02/18 03:54:40;;;;;;;8.40;0.90;;;;;;;3.62;68.27;97630.39;434439;1264;108789;-41
2022/02/18 04:04:47;;;;;;;3.80;1.10;;;;;;;3.73;68.05;97642.59;434598;1263;97104;-41
2022/02/18 04:14:54;;;;;;;8.50;1.80;;;;;;;3.70;67.88;97655.52;433873;1265;111123;-41
2022/02/18 04:25:01;;;;;;;7.30;1.80;;;;;;;3.66;67.92;97665.73;434121;1264;108706;-40
2022/02/18 04:35:11;;;;;;;8.50;1.60;;;;;;;3.59;68.13;97685.64;434166;1264;108996;-40
2022/02/18 04:45:17;;;;;;;;;;;;;;;3.59;68.15;97691.31;434175;1264;97946;-40
2022/02/18 04:55:24;;;;;;;13.00;2.70;;;;;;;3.56;68.04;97692.88;434112;1264;108655;-42
2022/02/18 05:05:31;;;;;;;6.90;3.10;;;;;;;3.48;68.28;97695.96;433981;1264;97920;-41
2022/02/18 05:15:38;;;;;;;5.40;2.40;;;;;;;3.42;68.34;97710.30;434692;1264;97606;-40
2022/02/18 05:25:46;;;;;;;8.30;2.30;;;;;;;3.40;68.19;97718.91;434615;1264;111098;-41
2022/02/18 05:35:54;;;;;;;5.60;1.70;;;;;;;3.49;68.34;97715.83;434619;1263;107329;-40
2022/02/18 05:46:01;;;;;;;7.00;2.80;;;;;;;3.46;68.43;97732.44;434641;1264;97923;-41
2022/02/18 05:56:08;;;;;;;5.70;2.40;;;;;;;3.34;68.44;97754.23;434562;1264;97937;-42
2022/02/18 06:06:16;;;;;;;22.80;4.40;;;;;;;3.26;68.63;97764.33;434071;1265;111102;-40
2022/02/18 06:16:23;;;;;;;5.80;1.90;;;;;;;3.23;68.86;97768.11;434120;1265;108883;-40
2022/02/18 06:26:30;;;;;;;5.20;1.80;;;;;;;3.19;68.64;97784.52;434144;1265;108825;-40
2022/02/18 06:36:37;;;;;;;4.80;1.80;;;;;;;3.14;68.79;97801.89;434228;1265;97903;-40
2022/02/18 06:46:45;;;;;;;11.70;2.10;;;;;;;3.27;69.10;97809.75;434214;1265;108609;-40
2022/02/18 06:56:53;;;;;;;5.10;2.40;;;;;;;3.57;68.66;97823.57;434152;1265;108562;-40
2022/02/18 07:07:01;;;;;;;13.90;2.60;;;;;;;3.82;68.06;97840.20;430155;1264;5656820;-41
2022/02/18 07:17:12;;;;;;;9.70;2.60;;;;;;;3.83;67.97;97848.41;434286;1264;108543;-40
2022/02/18 07:27:19;;;;;;;8.20;1.90;;;;;;;4.38;68.22;97862.13;434260;1264;98108;-43
2022/02/18 07:37:26;;;;;;;16.10;3.50;;;;;;;5.41;67.73;97860.45;434161;1265;108848;-41
2022/02/18 07:47:33;;;;;;;8.60;2.00;;;;;;;6.52;66.33;97863.12;434116;1265;108926;-42
2022/02/18 07:57:41;;;;;;;5.40;1.80;;;;;;;7.81;64.81;97863.05;434408;1263;97315;-41
2022/02/18 08:07:48;;;;;;;6.30;2.00;;;;;;;8.25;62.04;97871.30;434274;1263;111068;-42
2022/02/18 08:17:55;;;;;;;9.10;3.10;;;;;;;8.45;59.63;97864.11;434175;1263;109047;-41
2022/02/18 08:28:02;;;;;;;7.90;2.90;;;;;;;8.76;58.43;97863.63;433971;1265;107558;-41
2022/02/18 08:38:10;;;;;;;12.90;2.40;;;;;;;8.64;57.22;97872.60;434318;1264;98001;-42
2022/02/18 08:48:17;;;;;;;7.50;2.50;;;;;;;8.06;57.76;97876.86;434311;1265;110160;-41
2022/02/18 08:58:25;;;;;;;6.70;2.00;;;;;;;7.85;57.07;97872.55;434386;1265;108872;-41
2022/02/18 09:08:33;;;;;;;9.30;2.40;;;;;;;7.61;56.58;97880.55;434202;1264;97880;-41
2022/02/18 09:18:41;;;;;;;12.70;3.80;;;;;;;7.60;56.45;97884.58;434398;1264;111042;-41
2022/02/18 09:28:47;;;;;;;12.80;5.00;;;;;;;7.40;56.71;97893.95;434273;1264;107475;-41
2022/02/18 09:38:54;;;;;;;5.80;1.90;;;;;;;7.36;57.65;97887.90;434467;1264;108930;-41
2022/02/18 09:49:05;;;;;;;7.90;2.30;;;;;;;7.81;56.77;97879.46;434285;1264;96666;-41
2022/02/18 09:59:13;;;;;;;9.80;3.50;;;;;;;8.07;56.53;97887.51;434058;1265;98037;-40
2022/02/18 10:09:39;;;;;;;7.60;1.80;;;;;;;8.46;56.80;97893.55;434221;1264;110222;-41
2022/02/18 10:19:50;;;;;;;4.20;1.80;;;;;;;8.53;55.80;97886.34;434270;1265;108203;-41
2022/02/18 10:30:00;;;;;;;3.90;1.40;;;;;;;8.61;54.43;97887.77;434282;1264;108709;-41
2022/02/18 10:50:20;;;;;;;6.90;2.20;;;;;;;8.92;53.98;97877.66;434228;1265;111115;-43
2022/02/18 11:00:28;;;;;;;10.50;2.20;;;;;;;8.71;53.92;97871.48;434271;1265;108813;-43
2022/02/18 11:10:36;;;;;;;8.50;3.00;;;;;;;8.53;53.84;97859.54;434271;1264;97914;-43
2022/02/18 11:20:44;;;;;;;7.50;2.20;;;;;;;8.73;54.10;97852.63;434330;1263;97899;-43
2022/02/18 11:30:53;;;;;;;6.90;2.00;;;;;;;8.99;53.59;97847.06;434460;1264;111109;-40
2022/02/18 11:41:04;;;;;;;10.00;3.40;;;;;;;9.19;54.10;97843.19;434242;1263;107407;-41
2022/02/18 11:51:09;;;;;;;11.40;2.80;;;;;;;9.17;54.05;97818.13;434156;1264;97928;-41
2022/02/18 12:01:16;;;;;;;8.30;2.30;;;;;;;8.95;53.71;97809.57;434249;1265;98161;-42
2022/02/18 12:11:26;;;;;;;11.60;2.90;;;;;;;9.02;53.60;97794.50;434048;1265;111389;-41
2022/02/18 12:21:34;;;;;;;7.00;2.30;;;;;;;9.09;53.04;97771.77;434257;1264;108860;-41
2022/02/18 12:31:49;;;;;;;9.20;2.90;;;;;;;9.00;52.23;97750.84;434131;1264;108853;-41
2022/02/18 12:41:57;;;;;;;9.80;2.20;;;;;;;9.00;52.40;97740.72;434143;1264;96666;-40
2022/02/18 12:52:11;;;;;;;7.10;2.70;;;;;;;9.05;52.52;97728.66;434149;1264;111054;-44
2022/02/18 13:02:36;;;;;;;9.70;2.90;;;;;;;9.04;52.52;97709.98;434231;1264;110102;-40
2022/02/18 13:12:46;;;;;;;9.20;3.50;;;;;;;8.95;51.86;97684.00;434209;1262;107720;-40
2022/02/18 13:22:57;;;;;;;17.70;5.70;;;;;;;9.17;52.29;97672.71;434402;1264;97855;-42
2022/02/18 13:33:02;;;;;;;8.10;3.90;;;;;;;9.21;52.05;97656.94;434220;1265;111120;-42
2022/02/18 13:43:09;;;;;;;12.20;3.60;;;;;;;9.22;52.85;97642.34;434169;1265;108846;-43
2022/02/18 13:53:17;;;;;;;13.60;3.40;;;;;;;9.29;52.67;97610.98;434365;1264;108873;-41
2022/02/18 14:03:27;;;;;;;9.30;3.30;;;;;;;9.38;52.40;97600.90;434278;1263;97796;-43
2022/02/18 14:13:34;;;;;;;8.60;4.20;;;;;;;9.22;51.37;97586.22;433922;1265;97995;-42
2022/02/18 14:33:57;;;;;;;6.80;3.80;;;;;;;8.47;52.51;97549.34;434231;1264;108344;-43
2022/02/18 14:44:03;;;;;;;13.70;4.50;;;;;;;8.24;53.52;97546.82;434285;1264;109498;-43
2022/02/18 15:04:17;;;;;;;18.40;7.60;;;;;;;7.95;54.40;97511.77;434189;1265;111061;-40
2022/02/18 15:14:23;;;;;;;13.90;5.70;;;;;;;7.79;55.17;97495.67;434221;1264;107740;-41
2022/02/18 15:24:30;;;;;;;19.70;7.50;;;;;;;7.61;55.93;97488.62;434258;1264;108759;-43
2022/02/18 15:34:37;;;;;;;17.70;7.20;;;;;;;7.48;56.62;97474.80;434287;1264;96642;-41
2022/02/18 15:44:47;;;;;;;21.80;6.80;;;;;;;7.37;57.35;97452.29;434427;1264;111087;-42
2022/02/18 15:54:55;;;;;;;14.40;4.90;;;;;;;7.28;58.04;97435.81;434343;1263;108914;-43
2022/02/18 16:15:09;;;;;;;14.70;6.00;;;;;;;7.14;59.49;97400.31;434361;1264;98603;-42
2022/02/18 16:25:16;;;;;;;20.20;6.50;;;;;;;7.06;60.27;97398.33;434302;1264;97880;-43
2022/02/18 16:35:22;;;;;;;11.10;3.90;;;;;;;6.91;61.60;97397.39;434386;1263;110997;-42
2022/02/18 16:45:29;;;;;;;14.20;4.90;;;;;;;6.68;62.90;97383.31;434222;1261;108801;-43
2022/02/18 16:55:39;;;;;;;17.90;6.50;;;;;;;6.53;63.86;97366.70;434243;1262;97960;-42
2022/02/18 17:05:47;;;;;;;11.00;3.90;;;;;;;6.32;65.54;97345.54;434312;1264;111541;-41
2022/02/18 17:26:00;;;;;;;22.60;7.20;;;;;;;5.89;67.46;97255.11;434284;1264;97935;-43
2022/02/18 17:36:05;;;;;;;24.60;7.50;;;;;;;5.72;68.65;97212.71;434353;1264;111155;-43
2022/02/18 17:46:11;;;;;;;10.70;6.20;;;;;;;5.52;70.42;97189.81;434470;1264;109670;-40
2022/02/18 17:56:19;;;;;;;27.50;8.50;;;;;;;5.46;71.49;97183.86;434558;1264;98002;-40
2022/02/18 18:06:26;;;;;;;29.70;10.30;;;;;;;5.45;71.66;97173.64;434421;1263;107813;-41
2022/02/18 18:16:32;;;;;;;37.80;12.10;;;;;;;5.38;72.55;97154.45;434465;1263;96660;-40
2022/02/18 18:26:38;;;;;;;25.90;9.40;;;;;;;5.25;74.14;97119.50;434538;1263;110962;-41
2022/02/18 18:36:46;;;;;;;25.70;10.30;;;;;;;5.20;74.77;97091.84;434355;1263;109452;-42
2022/02/18 18:46:53;;;;;;;30.40;10.10;;;;;;;5.22;75.33;97071.82;434388;1264;98032;-41
2022/02/18 18:57:01;;;;;;;34.10;14.20;;;;;;;5.25;75.81;97039.73;434213;1264;108872;-41
2022/02/18 19:07:08;;;;;;;38.10;14.30;;;;;;;5.22;76.06;96999.33;430291;1264;5489739;-42
2022/02/18 19:37:28;;;;;;;36.30;14.50;;;;;;;5.63;76.48;96924.70;434351;1263;97903;-43
2022/02/18 19:47:33;;;;;;;26.90;9.40;;;;;;;5.80;76.74;96896.02;434511;1264;108997;-42
2022/02/18 19:57:41;;;;;;;21.30;8.30;;;;;;;6.04;76.47;96880.31;434378;1264;97207;-42
2022/02/18 20:07:48;;;;;;;20.50;8.60;;;;;;;6.27;76.30;96848.98;434453;1264;111053;-43
2022/02/18 20:17:56;;;;;;;30.50;9.30;;;;;;;6.42;76.29;96826.75;434560;1261;108695;-41
2022/02/18 20:28:02;;;;;;;20.40;9.20;;;;;;;6.49;76.28;96818.41;434575;1263;97908;-40
2022/02/18 20:48:15;;;;;;;27.40;10.80;;;;;;;6.71;76.05;96771.98;434686;1263;97867;-40
2022/02/18 20:58:22;;;;;;;36.20;12.50;;;;;;;6.76;76.00;96756.45;434447;1264;110518;-40
2022/02/18 21:18:38;;;;;;;38.30;14.50;;;;;;;6.96;75.70;96747.11;434399;1264;98027;-41
2022/02/18 21:28:45;;;;;;;35.00;15.00;;;;;;;7.04;75.65;96732.55;434411;1263;109071;-41
2022/02/18 21:38:52;;;;;;;31.70;11.10;;;;;;;7.05;75.55;96707.27;434464;1263;97900;-41
2022/02/18 21:48:59;;;;;;;36.30;12.00;;;;;;;7.23;75.55;96704.12;434549;1264;111840;-41
2022/02/18 21:59:06;;;;;;;31.50;13.00;;;;;;;7.48;75.24;96696.19;434514;1264;107380;-40
2022/02/18 22:09:13;;;;;;;22.60;8.80;;;;;;;7.71;74.95;96678.86;434566;1264;97912;-40
2022/02/18 22:19:21;;;;;;;17.80;6.90;;;;;;;7.99;74.34;96667.10;434762;1263;111263;-44
2022/02/18 22:29:29;;;;;;;18.50;6.90;;;;;;;8.27;73.93;96655.65;434602;1264;108847;-40
2022/02/18 22:49:43;;;;;;;18.20;5.80;;;;;;;8.42;73.13;96654.89;434082;1264;111075;-41
2022/02/18 22:59:51;;;;;;;15.60;6.10;;;;;;;8.65;72.55;96649.72;434347;1264;108759;-41
2022/02/18 23:09:58;;;;;;;15.90;5.70;;;;;;;8.78;72.22;96656.95;434457;1264;97810;-41
2022/02/18 23:20:05;;;;;;;17.00;6.00;;;;;;;8.83;71.95;96653.88;434481;1264;110956;-42
2022/02/18 23:30:15;;;;;;;10.10;5.50;;;;;;;8.92;71.71;96643.98;434399;1264;108844;-41
2022/02/18 23:40:22;;;;;;;9.60;4.30;;;;;;;9.14;71.71;96646.61;434146;1266;96954;-41
2022/02/18 23:50:28;;;;;;;18.90;4.40;;;;;;;9.27;71.52;96711.26;434247;1265;111038;-43
